Time;durP1;ratioP1;P1;durP2;ratioP2;P2;SDS_P1;SDS_P2;PMS_P1;PMS_P2;Temp;Humidity;BMP_temperature;BMP_pressure;BME280_temperature;BME280_humidity;BME280_pressure;Samples;Min_cycle;Max_cycle;Signal;HPM_P1;HPM_P2
2023/06/28 00:00:19;;;;;;;7.70;2.10;;;15.60;99.90;;;;;;4200757;28;20532;-85
2023/06/28 00:02:20;;;;;;;6.68;2.25;;;15.60;99.90;;;;;;4200480;28;20041;-86
2023/06/28 00:04:21;;;;;;;10.10;2.15;;;15.60;99.90;;;;;;4198945;28;20044;-86
2023/06/28 00:06:22;;;;;;;6.35;2.25;;;15.60;99.90;;;;;;4201300;28;20554;-85
2023/06/28 00:08:22;;;;;;;6.60;2.13;;;15.60;99.90;;;;;;4215864;28;20048;-85
2023/06/28 00:10:23;;;;;;;5.43;1.92;;;15.60;99.90;;;;;;4199474;28;20135;-85
2023/06/28 00:12:26;;;;;;;4.72;1.92;;;15.60;99.90;;;;;;4199342;28;20040;-86
2023/06/28 00:14:27;;;;;;;4.85;2.47;;;14.90;99.90;;;;;;4200274;28;20051;-86
2023/06/28 00:16:28;;;;;;;7.38;2.63;;;15.60;99.90;;;;;;4198882;28;20424;-85
2023/06/28 00:18:30;;;;;;;9.38;2.97;;;15.60;99.90;;;;;;4199022;28;20044;-85
2023/06/28 00:20:31;;;;;;;6.53;2.40;;;15.50;99.90;;;;;;4199404;28;20056;-85
2023/06/28 00:22:33;;;;;;;9.70;2.17;;;15.50;99.90;;;;;;4215728;28;20179;-85
2023/06/28 00:24:35;;;;;;;9.40;2.95;;;15.50;99.90;;;;;;4198844;28;20172;-85
2023/06/28 00:26:36;;;;;;;9.38;2.85;;;15.50;99.90;;;;;;4198668;28;20488;-85
2023/06/28 00:28:37;;;;;;;6.78;2.63;;;15.40;99.90;;;;;;4215635;28;20055;-85
2023/06/28 00:30:37;;;;;;;7.18;2.30;;;15.40;99.90;;;;;;4215126;28;20044;-86
2023/06/28 00:32:38;;;;;;;7.88;3.00;;;15.40;99.90;;;;;;4198798;28;20046;-85
2023/06/28 00:34:39;;;;;;;8.95;2.60;;;15.40;99.90;;;;;;4199669;28;20093;-85
2023/06/28 00:36:40;;;;;;;14.25;3.45;;;15.40;99.90;;;;;;4199011;28;20037;-85
2023/06/28 00:38:41;;;;;;;9.48;3.65;;;15.40;99.90;;;;;;4215017;28;20048;-85
2023/06/28 00:40:42;;;;;;;7.97;2.70;;;15.40;99.90;;;;;;4199199;28;20044;-85
2023/06/28 00:42:42;;;;;;;10.48;2.50;;;15.30;99.90;;;;;;4198637;28;20118;-85
2023/06/28 00:44:43;;;;;;;8.88;3.65;;;15.30;99.90;;;;;;4197634;28;20106;-84
2023/06/28 00:46:44;;;;;;;14.63;3.15;;;15.30;99.90;;;;;;4215011;28;20040;-85
2023/06/28 00:48:45;;;;;;;6.25;2.25;;;15.30;99.90;;;;;;4198417;28;20067;-84
2023/06/28 00:50:47;;;;;;;6.93;2.50;;;15.30;99.90;;;;;;4214249;28;20044;-85
2023/06/28 00:52:50;;;;;;;9.73;2.60;;;15.30;99.90;;;;;;4214903;28;20048;-84
2023/06/28 00:54:51;;;;;;;7.18;2.67;;;15.30;99.90;;;;;;4214105;28;20048;-85
2023/06/28 00:56:52;;;;;;;8.88;2.50;;;15.30;99.90;;;;;;4198889;28;20040;-85
2023/06/28 00:58:53;;;;;;;5.40;2.30;;;15.30;99.90;;;;;;4199144;28;20105;-86
2023/06/28 01:00:54;;;;;;;13.35;3.03;;;15.30;99.90;;;;;;4214422;28;20107;-86
2023/06/28 01:02:55;;;;;;;7.03;2.20;;;15.30;99.90;;;;;;4197733;28;20058;-85
2023/06/28 01:04:58;;;;;;;5.20;2.10;;;15.30;99.90;;;;;;4197824;28;20552;-86
2023/06/28 01:07:00;;;;;;;6.57;2.28;;;15.30;99.90;;;;;;4197838;28;20052;-85
2023/06/28 01:09:04;;;;;;;8.60;2.97;;;15.30;99.90;;;;;;4198344;28;20048;-86
2023/06/28 01:11:06;;;;;;;7.43;3.20;;;15.30;99.90;;;;;;4199378;28;20044;-85
2023/06/28 01:13:07;;;;;;;6.78;2.92;;;15.30;99.90;;;;;;4213961;28;20450;-86
2023/06/28 01:15:09;;;;;;;12.48;2.95;;;15.30;99.90;;;;;;4197970;28;20044;-86
2023/06/28 01:17:11;;;;;;;9.30;2.67;;;15.20;99.90;;;;;;4197976;28;20044;-85
2023/06/28 01:19:13;;;;;;;8.30;2.20;;;15.20;99.90;;;;;;4197603;28;20088;-86
2023/06/28 01:21:16;;;;;;;7.60;2.30;;;15.20;99.90;;;;;;4214415;28;20056;-86
2023/06/28 01:23:18;;;;;;;6.35;2.40;;;15.20;99.90;;;;;;4197350;28;20440;-86
2023/06/28 01:25:19;;;;;;;9.95;3.78;;;15.20;99.90;;;;;;4214271;28;20098;-85
2023/06/28 01:27:21;;;;;;;6.47;2.30;;;15.10;99.90;;;;;;4196847;28;20052;-86
2023/06/28 01:29:23;;;;;;;8.75;2.13;;;15.20;99.90;;;;;;4214237;28;20139;-85
2023/06/28 01:31:24;;;;;;;9.35;3.50;;;15.20;99.90;;;;;;4198426;28;20170;-85
2023/06/28 01:33:26;;;;;;;7.38;2.60;;;15.20;99.90;;;;;;4198294;28;20064;-85
2023/06/28 01:35:28;;;;;;;7.72;2.45;;;15.10;99.90;;;;;;4213691;28;20040;-85
2023/06/28 01:37:28;;;;;;;7.18;2.40;;;15.10;99.90;;;;;;4213466;28;20048;-85
2023/06/28 01:39:33;;;;;;;5.60;2.40;;;15.10;99.90;;;;;;4181542;28;20072;-85
2023/06/28 01:41:36;;;;;;;8.48;3.08;;;15.10;99.90;;;;;;4213791;28;20056;-85
2023/06/28 01:43:37;;;;;;;6.43;2.58;;;15.10;99.90;;;;;;4215767;28;20044;-86
2023/06/28 01:45:38;;;;;;;7.32;2.30;;;15.10;99.90;;;;;;4198644;28;20079;-85
2023/06/28 01:47:39;;;;;;;8.45;2.60;;;15.10;99.90;;;;;;4216585;28;20488;-85
2023/06/28 01:49:40;;;;;;;8.13;2.25;;;15.90;99.90;;;;;;4215598;28;20074;-86
2023/06/28 01:51:41;;;;;;;10.30;2.55;;;15.20;99.90;;;;;;4199120;28;20432;-84
2023/06/28 01:53:42;;;;;;;9.68;2.58;;;15.10;99.90;;;;;;4199564;28;20059;-85
2023/06/28 01:55:44;;;;;;;8.52;2.65;;;15.10;99.90;;;;;;4230447;28;20505;-85
2023/06/28 01:57:46;;;;;;;11.60;2.83;;;15.10;99.90;;;;;;4214566;28;20909;-86
2023/06/28 01:59:48;;;;;;;8.00;2.30;;;15.10;99.90;;;;;;4198001;28;20075;-86
2023/06/28 02:01:48;;;;;;;6.50;2.00;;;15.10;99.90;;;;;;4198492;28;20056;-85
2023/06/28 02:03:49;;;;;;;8.82;2.83;;;15.10;99.90;;;;;;4231755;28;20051;-85
2023/06/28 02:05:50;;;;;;;5.25;2.08;;;15.10;99.90;;;;;;4213809;28;20044;-85
2023/06/28 02:07:51;;;;;;;11.57;2.85;;;15.10;99.90;;;;;;4214692;28;20416;-85
2023/06/28 02:09:51;;;;;;;7.18;1.83;;;15.10;99.90;;;;;;4216580;28;20044;-84
2023/06/28 02:11:52;;;;;;;5.55;1.77;;;15.10;99.90;;;;;;4191612;28;20493;-84
2023/06/28 02:13:54;;;;;;;7.80;1.88;;;15.10;99.90;;;;;;4218577;28;20071;-85
2023/06/28 02:15:55;;;;;;;7.10;2.05;;;15.20;99.90;;;;;;4216959;28;20127;-86
2023/06/28 02:17:58;;;;;;;7.32;1.98;;;15.20;99.90;;;;;;4200833;28;20133;-86
2023/06/28 02:19:58;;;;;;;6.38;1.80;;;15.20;99.90;;;;;;4216555;28;20150;-86
2023/06/28 02:21:59;;;;;;;5.97;2.08;;;15.20;99.90;;;;;;4200455;28;20048;-86
2023/06/28 02:24:00;;;;;;;7.13;2.13;;;15.20;99.90;;;;;;4184412;28;20045;-86
2023/06/28 02:26:01;;;;;;;5.18;2.38;;;15.20;99.90;;;;;;4201500;28;20475;-86
2023/06/28 02:28:02;;;;;;;9.95;2.72;;;15.20;99.90;;;;;;4218159;28;20051;-86
2023/06/28 02:30:04;;;;;;;8.52;2.13;;;15.20;99.90;;;;;;4217369;28;20091;-86
2023/06/28 02:32:05;;;;;;;8.88;2.13;;;15.20;99.90;;;;;;4202724;28;20053;-86
2023/06/28 02:34:05;;;;;;;9.35;1.88;;;15.30;99.90;;;;;;4217218;28;20078;-86
2023/06/28 02:36:06;;;;;;;7.82;2.05;;;15.30;99.90;;;;;;4185030;28;20049;-86
2023/06/28 02:38:07;;;;;;;7.70;1.90;;;15.30;99.90;;;;;;4200613;28;20572;-86
2023/06/28 02:40:09;;;;;;;7.97;1.95;;;15.20;99.90;;;;;;4202917;28;20075;-86
2023/06/28 02:42:10;;;;;;;9.95;1.70;;;15.20;99.90;;;;;;4216749;28;20048;-86
2023/06/28 02:44:11;;;;;;;7.07;1.75;;;15.30;99.90;;;;;;4216967;28;20059;-86
2023/06/28 02:46:12;;;;;;;8.75;1.67;;;15.30;99.90;;;;;;4201780;28;20038;-85
2023/06/28 02:48:14;;;;;;;6.20;1.60;;;15.30;99.90;;;;;;4217630;28;20131;-86
2023/06/28 02:50:14;;;;;;;6.47;1.70;;;15.30;99.90;;;;;;4218382;28;20093;-86
2023/06/28 02:52:15;;;;;;;5.75;1.73;;;15.30;99.90;;;;;;4217606;28;20496;-86
2023/06/28 02:54:16;;;;;;;7.93;2.20;;;15.30;99.90;;;;;;4200323;28;20053;-87
2023/06/28 02:56:18;;;;;;;6.43;1.92;;;15.30;99.90;;;;;;4217822;28;20060;-86
2023/06/28 02:58:20;;;;;;;5.80;2.25;;;15.30;99.90;;;;;;4202728;28;20048;-86
2023/06/28 03:00:23;;;;;;;5.43;2.50;;;15.40;99.90;;;;;;4201683;28;20587;-86
2023/06/28 03:02:24;;;;;;;5.07;2.05;;;15.30;99.90;;;;;;4234417;28;20048;-87
2023/06/28 03:04:27;;;;;;;7.75;2.25;;;15.30;99.90;;;;;;4234065;28;20197;-85
2023/06/28 03:06:32;;;;;;;6.07;2.35;;;15.30;99.90;;;;;;4218334;28;20887;-87
2023/06/28 03:08:33;;;;;;;10.90;2.78;;;15.30;99.90;;;;;;4235839;28;20052;-86
2023/06/28 03:10:34;;;;;;;8.73;2.33;;;15.30;99.90;;;;;;4218589;28;20123;-86
2023/06/28 03:12:34;;;;;;;6.68;2.63;;;15.30;99.90;;;;;;4219012;28;20040;-86
2023/06/28 03:14:43;;;;;;;10.65;2.78;;;15.60;99.90;;;;;;4235464;28;20453;-86
2023/06/28 03:16:44;;;;;;;4.70;2.25;;;15.30;99.90;;;;;;4200116;28;20087;-86
2023/06/28 03:18:45;;;;;;;8.07;2.30;;;15.30;99.90;;;;;;4202154;28;20033;-86
2023/06/28 03:20:46;;;;;;;8.43;2.63;;;15.30;99.90;;;;;;4200644;28;20037;-86
2023/06/28 03:22:49;;;;;;;8.45;2.72;;;15.30;99.90;;;;;;4201647;28;20058;-86
2023/06/28 03:24:50;;;;;;;9.20;2.78;;;15.30;99.90;;;;;;4202007;28;20113;-85
2023/06/28 03:26:51;;;;;;;7.70;2.83;;;15.30;99.90;;;;;;4218473;28;20123;-87
2023/06/28 03:28:53;;;;;;;10.75;3.13;;;15.30;99.90;;;;;;4202077;28;20451;-86
2023/06/28 03:30:54;;;;;;;6.95;2.15;;;15.30;99.90;;;;;;4199623;28;20060;-86
2023/06/28 03:32:55;;;;;;;9.13;2.30;;;15.30;99.90;;;;;;4203451;28;20104;-86
2023/06/28 03:34:56;;;;;;;6.82;2.42;;;15.30;99.90;;;;;;4217468;28;20047;-86
2023/06/28 03:36:57;;;;;;;7.85;2.88;;;15.30;99.90;;;;;;4201527;28;20123;-86
2023/06/28 03:38:58;;;;;;;9.40;2.47;;;15.30;99.90;;;;;;4201050;28;20048;-86
2023/06/28 03:40:59;;;;;;;8.20;2.38;;;15.30;99.90;;;;;;4200617;28;20036;-87
2023/06/28 03:42:59;;;;;;;5.78;2.28;;;15.30;99.90;;;;;;4200493;28;20047;-86
2023/06/28 03:45:00;;;;;;;7.88;3.00;;;15.30;99.90;;;;;;4220272;28;20039;-86
2023/06/28 03:47:01;;;;;;;6.70;2.70;;;15.30;99.90;;;;;;4201650;28;20043;-86
2023/06/28 03:49:04;;;;;;;8.48;2.45;;;15.30;99.90;;;;;;4199848;28;20041;-83
2023/06/28 03:51:05;;;;;;;6.38;2.25;;;15.30;99.90;;;;;;4204537;28;20041;-84
2023/06/28 03:53:06;;;;;;;7.13;2.15;;;15.30;99.90;;;;;;4199382;28;20430;-84
2023/06/28 03:55:07;;;;;;;6.22;2.10;;;15.30;99.90;;;;;;4215056;28;20056;-83
2023/06/28 03:57:07;;;;;;;4.03;2.00;;;15.30;99.90;;;;;;4197984;28;20051;-86
2023/06/28 03:59:08;;;;;;;7.35;2.58;;;15.30;99.90;;;;;;4200248;28;20041;-85
2023/06/28 04:01:10;;;;;;;5.18;2.28;;;15.30;99.90;;;;;;4199250;28;20036;-85
2023/06/28 04:03:11;;;;;;;4.78;2.00;;;15.30;99.90;;;;;;4214269;28;20036;-83
2023/06/28 04:05:12;;;;;;;8.02;3.00;;;15.30;99.90;;;;;;4198105;28;20132;-84
2023/06/28 04:07:14;;;;;;;5.10;2.17;;;15.30;99.90;;;;;;4202039;28;20127;-86
2023/06/28 04:09:15;;;;;;;7.22;1.80;;;15.30;99.90;;;;;;4204775;28;20055;-84
2023/06/28 04:11:16;;;;;;;4.85;3.15;;;15.30;99.90;;;;;;4212609;28;20124;-84
2023/06/28 04:13:16;;;;;;;6.35;2.08;;;15.30;99.90;;;;;;4216939;28;20043;-83
2023/06/28 04:15:17;;;;;;;6.82;2.33;;;15.30;99.90;;;;;;4215671;28;20101;-84
2023/06/28 04:17:18;;;;;;;7.05;2.55;;;15.30;99.90;;;;;;4214703;28;20046;-84
2023/06/28 04:19:20;;;;;;;6.80;2.40;;;15.30;99.90;;;;;;4232522;28;20063;-84
2023/06/28 04:21:21;;;;;;;4.05;2.05;;;15.30;99.90;;;;;;4231997;28;20051;-84
2023/06/28 04:23:23;;;;;;;4.45;1.63;;;15.30;99.90;;;;;;4215538;28;20871;-84
2023/06/28 04:25:25;;;;;;;4.03;1.60;;;15.30;99.90;;;;;;4207163;28;20048;-84
2023/06/28 04:27:26;;;;;;;2.80;1.40;;;15.30;99.90;;;;;;4202023;28;20109;-83
2023/06/28 04:29:28;;;;;;;3.67;1.45;;;15.30;99.90;;;;;;4215123;28;20500;-84
2023/06/28 04:31:28;;;;;;;1.50;1.00;;;15.30;99.90;;;;;;4200589;28;20489;-83
2023/06/28 04:33:30;;;;;;;5.22;1.70;;;15.30;99.90;;;;;;4209297;28;20123;-84
2023/06/28 04:35:34;;;;;;;3.17;1.30;;;15.30;99.90;;;;;;4198739;28;20044;-84
2023/06/28 04:37:38;;;;;;;2.88;1.20;;;15.30;99.90;;;;;;4219814;28;20125;-83
2023/06/28 04:39:39;;;;;;;3.22;1.00;;;15.30;99.90;;;;;;4199724;28;20048;-84
2023/06/28 04:41:40;;;;;;;4.55;1.25;;;15.30;99.90;;;;;;4217451;28;20134;-84
2023/06/28 04:43:43;;;;;;;4.20;1.10;;;15.30;99.90;;;;;;4218174;28;20447;-82
2023/06/28 04:45:44;;;;;;;4.15;1.38;;;15.30;99.90;;;;;;4216870;28;20040;-83
2023/06/28 04:47:45;;;;;;;2.97;1.30;;;15.30;99.90;;;;;;4218596;28;20083;-82
2023/06/28 04:49:48;;;;;;;4.78;1.30;;;15.30;99.90;;;;;;4217015;28;20387;-82
2023/06/28 04:51:49;;;;;;;3.38;1.15;;;15.30;99.90;;;;;;4233813;28;20136;-83
2023/06/28 04:53:50;;;;;;;3.90;1.65;;;15.30;99.90;;;;;;4215806;28;20044;-83
2023/06/28 04:55:51;;;;;;;4.80;1.33;;;15.30;99.90;;;;;;4214534;28;20056;-82
2023/06/28 04:57:53;;;;;;;2.33;1.20;;;15.30;99.90;;;;;;4208566;28;20036;-83
2023/06/28 04:59:55;;;;;;;5.65;1.77;;;15.30;99.90;;;;;;4199041;28;20079;-83
2023/06/28 05:01:56;;;;;;;5.10;1.48;;;15.30;99.90;;;;;;4198654;28;20043;-83
2023/06/28 05:03:57;;;;;;;3.20;1.23;;;15.20;99.90;;;;;;4199769;28;20040;-83
2023/06/28 05:05:57;;;;;;;3.42;1.35;;;15.30;99.90;;;;;;4199295;28;20558;-83
2023/06/28 05:07:59;;;;;;;3.90;1.42;;;15.30;99.90;;;;;;4198504;28;20059;-83
2023/06/28 05:09:59;;;;;;;2.28;1.23;;;15.30;99.90;;;;;;4199207;28;20045;-83
2023/06/28 05:12:02;;;;;;;4.55;2.28;;;15.30;99.90;;;;;;4198916;28;20120;-83
2023/06/28 05:14:02;;;;;;;5.18;1.70;;;15.30;99.90;;;;;;4199680;28;20070;-83
2023/06/28 05:16:03;;;;;;;4.43;1.20;;;15.30;99.90;;;;;;4199321;28;20041;-83
2023/06/28 05:18:04;;;;;;;6.57;1.50;;;15.30;99.90;;;;;;4215724;28;20048;-83
2023/06/28 05:20:06;;;;;;;4.85;1.55;;;15.30;99.90;;;;;;4199159;28;20082;-83
2023/06/28 05:22:06;;;;;;;3.85;1.77;;;15.30;99.90;;;;;;4214781;28;20098;-83
2023/06/28 05:24:07;;;;;;;6.55;1.80;;;15.30;99.90;;;;;;4200205;28;20044;-82
2023/06/28 05:26:08;;;;;;;7.47;1.90;;;15.30;99.90;;;;;;4198885;28;20047;-83
2023/06/28 05:28:11;;;;;;;3.78;1.35;;;15.30;99.90;;;;;;4199392;28;20040;-83
2023/06/28 05:30:11;;;;;;;3.28;1.50;;;15.30;99.90;;;;;;4198392;28;20048;-83
2023/06/28 05:32:15;;;;;;;5.78;1.30;;;15.30;99.90;;;;;;4199015;28;20071;-83
2023/06/28 05:34:16;;;;;;;8.20;2.65;;;15.30;99.90;;;;;;4198274;28;20052;-83
2023/06/28 05:36:20;;;;;;;3.67;1.70;;;15.30;99.90;;;;;;4197963;28;20804;-83
2023/06/28 05:38:21;;;;;;;2.65;1.52;;;16.00;99.90;;;;;;4197710;28;20477;-83
2023/06/28 05:40:21;;;;;;;3.88;1.58;;;15.40;99.90;;;;;;4197754;28;20051;-83
2023/06/28 05:42:23;;;;;;;5.93;1.90;;;15.40;99.90;;;;;;4198694;28;20041;-83
2023/06/28 05:44:24;;;;;;;4.10;1.75;;;15.40;99.90;;;;;;4213615;28;20075;-83
2023/06/28 05:46:25;;;;;;;3.83;2.00;;;15.40;99.90;;;;;;4198536;28;20107;-83
2023/06/28 05:48:26;;;;;;;4.93;1.60;;;15.40;99.90;;;;;;4201828;28;20508;-83
2023/06/28 05:50:27;;;;;;;3.92;2.17;;;15.50;99.90;;;;;;4202743;28;20097;-83
2023/06/28 05:52:28;;;;;;;6.22;2.10;;;15.50;99.90;;;;;;4202291;28;20044;-84
2023/06/28 05:54:28;;;;;;;4.63;2.42;;;15.50;99.90;;;;;;4204409;28;20053;-86
2023/06/28 05:56:29;;;;;;;5.55;1.73;;;15.60;99.90;;;;;;4204012;28;20412;-86
2023/06/28 05:58:30;;;;;;;5.28;1.88;;;15.60;99.90;;;;;;4204968;28;20040;-86
2023/06/28 06:00:31;;;;;;;5.40;2.15;;;15.70;99.90;;;;;;4205298;28;20106;-86
2023/06/28 06:02:33;;;;;;;4.40;2.00;;;15.70;99.90;;;;;;4204217;28;20052;-85
2023/06/28 06:04:35;;;;;;;5.32;1.75;;;15.70;99.90;;;;;;4205745;28;20059;-84
2023/06/28 06:06:37;;;;;;;9.48;1.83;;;15.70;99.90;;;;;;4212324;28;20063;-86
2023/06/28 06:08:39;;;;;;;5.63;2.10;;;15.70;99.90;;;;;;4221729;28;20054;-85
2023/06/28 06:10:39;;;;;;;6.90;2.20;;;15.80;99.90;;;;;;4220694;28;20097;-85
2023/06/28 06:12:43;;;;;;;4.55;2.00;;;15.80;99.90;;;;;;4224905;28;20063;-85
2023/06/28 06:14:50;;;;;;;6.75;1.90;;;15.80;99.90;;;;;;4226306;28;20480;-88
2023/06/28 06:17:04;;;;;;;6.82;1.83;;;15.90;99.90;;;;;;4226435;28;20128;-86
2023/06/28 06:19:11;;;;;;;8.93;2.17;;;15.90;99.90;;;;;;4224219;28;20545;-85
2023/06/28 06:21:13;;;;;;;7.05;3.03;;;15.90;99.90;;;;;;4224948;28;20055;-86
2023/06/28 06:23:15;;;;;;;3.78;1.77;;;15.90;99.90;;;;;;4213591;28;20569;-85
2023/06/28 06:25:22;;;;;;;4.32;1.80;;;16.00;99.90;;;;;;4205318;28;20472;-86
2023/06/28 06:27:23;;;;;;;5.30;1.98;;;16.00;99.90;;;;;;4206668;28;20139;-85
2023/06/28 06:29:55;;;;;;;8.00;2.13;;;16.00;99.90;;;;;;4209116;28;20057;-86
2023/06/28 06:31:55;;;;;;;6.03;2.13;;;16.00;99.90;;;;;;4208270;28;20092;-84
2023/06/28 06:34:00;;;;;;;8.13;2.70;;;16.00;99.90;;;;;;4207936;28;20400;-83
2023/06/28 06:36:17;;;;;;;7.25;2.42;;;16.00;99.90;;;;;;4209731;28;20041;-83
2023/06/28 06:38:19;;;;;;;4.25;2.38;;;15.00;99.90;;;;;;4205950;28;20059;-85
2023/06/28 06:40:20;;;;;;;3.78;2.10;;;15.90;99.90;;;;;;4208509;28;20048;-86
2023/06/28 06:42:24;;;;;;;5.43;2.10;;;15.90;99.90;;;;;;4213887;28;20092;-86
2023/06/28 06:44:33;;;;;;;7.03;2.45;;;16.00;99.90;;;;;;4213316;28;20064;-86
2023/06/28 06:46:36;;;;;;;5.20;2.42;;;16.00;99.90;;;;;;4221988;28;20032;-84
2023/06/28 06:48:38;;;;;;;7.32;2.50;;;15.90;99.90;;;;;;4222928;28;20056;-86
2023/06/28 06:50:39;;;;;;;6.38;2.50;;;16.00;99.90;;;;;;4215635;28;20119;-85
2023/06/28 06:52:40;;;;;;;6.38;2.95;;;16.00;99.90;;;;;;4206371;28;20496;-85
2023/06/28 06:54:41;;;;;;;6.53;2.58;;;16.00;99.90;;;;;;4202407;28;20056;-85
2023/06/28 06:56:42;;;;;;;8.77;2.55;;;16.00;99.90;;;;;;4202428;28;20094;-85
2023/06/28 06:58:44;;;;;;;6.10;2.90;;;16.10;99.90;;;;;;4202139;28;20048;-85
2023/06/28 07:00:46;;;;;;;10.93;3.50;;;16.10;99.90;;;;;;4202268;28;20040;-85
2023/06/28 07:02:47;;;;;;;7.80;2.80;;;16.00;99.90;;;;;;4203092;28;20032;-85
2023/06/28 07:04:48;;;;;;;9.70;3.58;;;16.00;99.90;;;;;;4202152;28;20041;-86
2023/06/28 07:06:50;;;;;;;9.73;3.30;;;16.00;99.90;;;;;;4202885;28;20027;-86
2023/06/28 07:08:51;;;;;;;8.68;3.88;;;16.00;99.90;;;;;;4210214;28;20115;-84
2023/06/28 07:10:52;;;;;;;12.30;5.07;;;16.00;99.90;;;;;;4218415;28;20044;-85
2023/06/28 07:12:53;;;;;;;8.25;4.07;;;16.00;99.90;;;;;;4218417;28;20514;-84
2023/06/28 07:14:54;;;;;;;9.80;3.63;;;15.90;99.90;;;;;;4217761;28;20040;-84
2023/06/28 07:16:57;;;;;;;7.22;3.67;;;15.90;99.90;;;;;;4217893;28;20391;-83
2023/06/28 07:18:57;;;;;;;9.90;3.80;;;14.90;99.90;;;;;;4215979;28;20062;-83
2023/06/28 07:20:58;;;;;;;9.95;4.43;;;15.90;99.90;;;;;;4183053;28;20045;-84
2023/06/28 07:22:59;;;;;;;14.23;4.38;;;15.90;99.90;;;;;;4201826;28;20068;-85
2023/06/28 07:25:02;;;;;;;14.75;4.38;;;16.00;99.90;;;;;;4205304;28;20046;-85
2023/06/28 07:27:04;;;;;;;9.30;4.07;;;15.90;99.90;;;;;;4218103;28;20202;-85
2023/06/28 07:29:05;;;;;;;11.95;4.75;;;15.90;99.90;;;;;;4217614;28;20040;-86
2023/06/28 07:31:07;;;;;;;9.80;4.07;;;15.90;99.90;;;;;;4218023;28;20061;-84
2023/06/28 07:33:08;;;;;;;12.70;4.40;;;15.90;99.90;;;;;;4216179;28;20070;-85
2023/06/28 07:35:09;;;;;;;12.30;4.28;;;16.00;99.90;;;;;;4218032;28;20048;-84
2023/06/28 07:37:10;;;;;;;11.25;4.30;;;16.00;99.90;;;;;;4217958;28;20043;-84
2023/06/28 07:39:11;;;;;;;11.45;4.55;;;16.10;99.90;;;;;;4217572;28;20043;-84
2023/06/28 07:41:12;;;;;;;11.32;4.97;;;16.10;99.90;;;;;;4219070;28;20082;-85
2023/06/28 07:43:14;;;;;;;12.18;5.00;;;16.10;99.90;;;;;;4234543;28;20435;-85
2023/06/28 07:45:14;;;;;;;9.18;4.25;;;16.10;99.90;;;;;;4217920;28;20039;-85
2023/06/28 07:47:16;;;;;;;11.68;5.18;;;16.10;99.90;;;;;;4218275;28;20032;-86
2023/06/28 07:49:16;;;;;;;8.30;4.13;;;16.00;99.90;;;;;;4206357;28;20485;-85
2023/06/28 07:51:17;;;;;;;14.73;4.68;;;16.10;99.90;;;;;;4218199;28;20051;-85
2023/06/28 07:53:18;;;;;;;12.43;4.80;;;16.10;99.90;;;;;;4216482;28;20412;-85
2023/06/28 07:55:19;;;;;;;12.15;5.82;;;16.20;99.90;;;;;;4217306;28;20107;-84
2023/06/28 07:57:19;;;;;;;9.48;4.97;;;16.30;99.90;;;;;;4215453;28;20048;-85
2023/06/28 07:59:20;;;;;;;11.77;4.85;;;16.30;99.90;;;;;;4215933;28;20127;-83
2023/06/28 08:01:23;;;;;;;14.38;5.85;;;16.40;99.90;;;;;;4217063;28;20050;-83
2023/06/28 08:03:24;;;;;;;10.15;4.90;;;16.50;99.90;;;;;;4216944;28;20050;-84
2023/06/28 08:05:25;;;;;;;14.68;4.50;;;16.60;99.90;;;;;;4218295;28;20488;-84
2023/06/28 08:07:27;;;;;;;9.18;4.72;;;16.60;99.90;;;;;;4218006;28;20040;-84
2023/06/28 08:09:28;;;;;;;8.02;4.65;;;16.50;99.90;;;;;;4216867;28;20097;-85
2023/06/28 08:11:29;;;;;;;10.63;4.70;;;16.50;99.90;;;;;;4218015;28;20495;-85
2023/06/28 08:13:36;;;;;;;8.77;4.80;;;16.50;99.90;;;;;;4217618;28;20400;-86
2023/06/28 08:15:40;;;;;;;11.55;4.00;;;16.50;99.90;;;;;;4216451;28;20048;-85
2023/06/28 08:17:41;;;;;;;9.60;4.85;;;16.40;99.90;;;;;;4213570;28;20036;-84
2023/06/28 08:19:41;;;;;;;9.30;4.25;;;16.50;99.90;;;;;;4217424;28;20059;-84
2023/06/28 08:21:42;;;;;;;10.23;4.60;;;16.50;99.90;;;;;;4217728;28;20044;-85
2023/06/28 08:23:43;;;;;;;11.35;5.07;;;16.50;99.90;;;;;;4216794;28;20100;-84
2023/06/28 08:25:50;;;;;;;9.48;4.32;;;16.50;99.90;;;;;;4217322;28;20040;-84
2023/06/28 08:27:51;;;;;;;13.05;4.75;;;16.10;99.90;;;;;;4217219;28;20040;-85
2023/06/28 08:29:52;;;;;;;10.05;5.10;;;16.60;99.90;;;;;;4218214;28;20557;-85
2023/06/28 08:31:54;;;;;;;13.88;3.95;;;16.70;99.90;;;;;;4218308;28;20043;-85
2023/06/28 08:33:56;;;;;;;6.93;4.07;;;16.70;99.90;;;;;;4218883;28;20381;-84
2023/06/28 08:35:57;;;;;;;9.52;4.00;;;16.80;99.90;;;;;;4216197;28;20121;-84
2023/06/28 08:37:57;;;;;;;14.70;4.85;;;16.80;99.90;;;;;;4216747;28;20036;-85
2023/06/28 08:39:58;;;;;;;8.45;4.72;;;16.90;99.90;;;;;;4216483;28;20123;-85
2023/06/28 08:42:01;;;;;;;6.93;4.32;;;16.90;99.90;;;;;;4217380;28;20048;-85
2023/06/28 08:44:05;;;;;;;8.45;4.18;;;17.00;99.90;;;;;;4217970;28;20044;-85
2023/06/28 08:46:06;;;;;;;9.07;4.00;;;16.90;99.90;;;;;;4216912;28;20044;-85
2023/06/28 08:48:08;;;;;;;9.48;4.03;;;17.00;99.90;;;;;;4217702;28;20093;-84
2023/06/28 08:50:10;;;;;;;7.85;3.80;;;17.00;99.90;;;;;;4218543;28;20059;-85
2023/06/28 08:52:14;;;;;;;7.78;3.70;;;17.10;99.90;;;;;;4216677;28;20048;-84
2023/06/28 08:54:15;;;;;;;11.80;4.78;;;17.10;99.90;;;;;;4217146;28;20146;-85
2023/06/28 08:56:17;;;;;;;9.45;3.80;;;17.00;99.90;;;;;;4217474;28;20440;-84
2023/06/28 08:58:20;;;;;;;11.57;4.28;;;17.00;99.90;;;;;;4218690;28;20420;-85
2023/06/28 09:00:22;;;;;;;9.75;5.45;;;16.80;99.90;;;;;;4217708;28;20040;-85
2023/06/28 09:02:24;;;;;;;8.35;3.85;;;17.00;99.90;;;;;;4216812;28;20051;-85
2023/06/28 09:04:29;;;;;;;7.28;4.10;;;17.00;99.90;;;;;;4207088;28;20099;-84
2023/06/28 09:06:30;;;;;;;8.25;4.40;;;17.00;99.90;;;;;;4209307;28;20616;-85
2023/06/28 09:08:33;;;;;;;9.02;4.07;;;17.00;99.90;;;;;;4217098;28;20049;-85
2023/06/28 09:10:35;;;;;;;8.45;3.83;;;16.90;99.90;;;;;;4202509;28;20499;-85
2023/06/28 09:12:37;;;;;;;6.25;4.00;;;17.00;99.90;;;;;;4201603;28;20564;-85
2023/06/28 09:14:38;;;;;;;9.98;3.67;;;17.00;99.90;;;;;;4199698;28;20384;-85
2023/06/28 09:16:40;;;;;;;8.18;4.13;;;16.90;99.90;;;;;;4221047;28;20073;-85
2023/06/28 09:18:40;;;;;;;9.18;4.20;;;16.80;99.90;;;;;;4222966;28;20067;-84
2023/06/28 09:20:54;;;;;;;7.93;4.38;;;16.90;99.90;;;;;;4234054;28;20050;-85
2023/06/28 09:22:58;;;;;;;10.95;4.47;;;16.80;99.90;;;;;;4202642;28;20488;-85
2023/06/28 09:25:03;;;;;;;10.70;3.97;;;16.90;99.90;;;;;;4201252;28;20198;-83
2023/06/28 09:27:06;;;;;;;9.93;4.20;;;16.90;99.90;;;;;;4202196;28;20120;-84
2023/06/28 09:29:11;;;;;;;8.23;4.43;;;16.90;99.90;;;;;;4200287;28;20101;-84
2023/06/28 09:31:18;;;;;;;8.75;4.63;;;16.90;99.90;;;;;;4201054;28;20072;-84
2023/06/28 09:33:19;;;;;;;10.80;5.00;;;16.90;99.90;;;;;;4199712;28;20115;-83
2023/06/28 09:35:22;;;;;;;13.25;6.10;;;16.90;99.90;;;;;;4216583;28;20040;-83
2023/06/28 09:37:23;;;;;;;10.82;4.60;;;16.90;99.90;;;;;;4210236;28;20040;-84
2023/06/28 09:39:25;;;;;;;11.95;5.25;;;16.80;99.90;;;;;;4216818;28;20420;-85
2023/06/28 09:41:39;;;;;;;14.45;5.70;;;16.90;99.90;;;;;;4217233;28;20052;-84
2023/06/28 09:43:41;;;;;;;13.48;5.50;;;16.80;99.90;;;;;;4216042;28;20390;-84
2023/06/28 09:45:44;;;;;;;10.98;5.53;;;16.80;99.90;;;;;;4232822;28;20476;-85
2023/06/28 09:47:44;;;;;;;11.65;5.28;;;16.90;99.90;;;;;;4234521;28;20444;-85
2023/06/28 09:49:56;;;;;;;16.75;7.20;;;16.80;99.90;;;;;;4232124;28;20044;-85
2023/06/28 09:52:06;;;;;;;11.32;5.22;;;16.90;99.90;;;;;;4216564;28;20109;-85
2023/06/28 09:54:06;;;;;;;15.02;7.30;;;16.90;99.90;;;;;;4215055;28;20054;-84
2023/06/28 09:56:08;;;;;;;15.40;6.30;;;16.90;99.90;;;;;;4200365;28;20485;-84
2023/06/28 09:58:14;;;;;;;14.93;5.88;;;16.90;99.90;;;;;;4204953;28;20111;-85
2023/06/28 10:00:16;;;;;;;11.80;6.28;;;16.90;99.90;;;;;;4200456;28;20095;-85
2023/06/28 10:02:20;;;;;;;14.60;6.47;;;16.90;99.90;;;;;;4209281;28;20044;-85
2023/06/28 10:04:30;;;;;;;14.82;5.97;;;16.90;99.90;;;;;;4216179;28;20464;-85
2023/06/28 10:06:35;;;;;;;16.45;7.30;;;16.90;99.90;;;;;;4234019;28;20050;-85
2023/06/28 10:08:36;;;;;;;14.57;6.70;;;16.90;99.90;;;;;;4232988;28;20109;-85
2023/06/28 10:10:39;;;;;;;14.50;6.70;;;16.90;99.90;;;;;;4225789;28;20051;-86
2023/06/28 10:12:41;;;;;;;14.40;6.63;;;16.90;99.90;;;;;;4215626;28;20048;-84
2023/06/28 10:15:00;;;;;;;12.63;6.50;;;16.90;99.90;;;;;;4217313;28;20051;-85
2023/06/28 10:17:03;;;;;;;14.50;7.03;;;16.90;99.90;;;;;;4214364;28;20040;-85
2023/06/28 10:19:04;;;;;;;15.07;7.22;;;16.90;99.90;;;;;;4216195;28;20148;-85
2023/06/28 10:21:07;;;;;;;16.48;6.90;;;16.90;99.90;;;;;;4216196;28;20047;-85
2023/06/28 10:23:12;;;;;;;13.35;6.32;;;17.00;99.90;;;;;;4216745;28;20123;-84
2023/06/28 10:25:14;;;;;;;18.42;7.63;;;17.00;99.90;;;;;;4218610;28;20044;-84
2023/06/28 10:27:16;;;;;;;14.35;7.72;;;17.10;99.90;;;;;;4216502;28;20046;-84
2023/06/28 10:29:18;;;;;;;12.88;6.95;;;16.80;99.90;;;;;;4217958;28;20067;-84
2023/06/28 10:31:19;;;;;;;18.25;7.63;;;17.10;99.90;;;;;;4212690;28;20036;-84
2023/06/28 10:33:23;;;;;;;14.07;7.15;;;17.10;99.90;;;;;;4218323;28;20048;-84